createdAt,value
2023-04-26T00:00:14.251Z,6.30
2023-04-26T00:03:04.206Z,6.39
2023-04-26T00:05:35.167Z,6.38
2023-04-26T00:08:04.240Z,6.32
2023-04-26T00:10:33.269Z,6.32
2023-04-26T00:13:03.922Z,6.21
2023-04-26T00:15:33.325Z,6.14
2023-04-26T00:18:02.211Z,6.06
2023-04-26T00:20:31.455Z,6.08
2023-04-26T00:23:00.296Z,6.12
2023-04-26T00:25:29.681Z,6.10
2023-04-26T00:27:58.447Z,6.07
2023-04-26T00:30:28.956Z,6.04
2023-04-26T00:32:58.023Z,5.97
2023-04-26T00:35:27.073Z,5.97
2023-04-26T00:37:56.551Z,5.86
2023-04-26T00:40:25.686Z,5.88
2023-04-26T00:42:58.784Z,5.89
2023-04-26T00:45:29.794Z,5.87
2023-04-26T00:47:59.418Z,5.89
2023-04-26T00:50:28.996Z,5.80
2023-04-26T00:52:58.514Z,5.80
2023-04-26T00:55:28.188Z,5.74
2023-04-26T00:57:57.854Z,5.77
2023-04-26T01:00:27.795Z,5.81
2023-04-26T01:02:58.140Z,5.75
2023-04-26T01:05:27.600Z,5.71
2023-04-26T01:07:56.546Z,5.71
2023-04-26T01:10:26.539Z,5.70
2023-04-26T01:12:55.544Z,5.69
2023-04-26T01:15:24.806Z,5.76
2023-04-26T01:17:53.771Z,5.78
2023-04-26T01:20:24.459Z,5.79
2023-04-26T01:22:54.852Z,5.82
2023-04-26T01:25:24.100Z,5.83
2023-04-26T01:27:53.004Z,5.83
2023-04-26T01:30:22.097Z,5.92
2023-04-26T01:32:51.060Z,5.88
2023-04-26T01:35:20.955Z,5.94
2023-04-26T01:37:50.141Z,5.99
2023-04-26T01:40:20.548Z,5.91
2023-04-26T01:42:49.531Z,5.91
2023-04-26T01:45:18.637Z,6.05
2023-04-26T01:48:06.903Z,6.11
2023-04-26T01:50:36.123Z,6.10
2023-04-26T01:53:04.988Z,6.13
2023-04-26T01:55:36.220Z,6.12
2023-04-26T01:58:05.249Z,6.05
2023-04-26T02:00:35.403Z,6.16
2023-04-26T02:03:04.495Z,6.24
2023-04-26T02:05:33.599Z,6.28
2023-04-26T02:08:03.016Z,6.21
2023-04-26T02:10:32.174Z,6.20
2023-04-26T02:13:02.511Z,6.27
2023-04-26T02:15:31.931Z,6.30
2023-04-26T02:18:00.755Z,6.32
2023-04-26T02:20:30.109Z,6.37
2023-04-26T02:22:58.849Z,6.39
2023-04-26T02:25:28.025Z,6.40
2023-04-26T02:27:56.846Z,6.44
2023-04-26T02:31:20.047Z,6.42
2023-04-26T02:33:51.458Z,6.40
2023-04-26T02:36:21.348Z,6.36
2023-04-26T02:38:50.426Z,6.38
2023-04-26T02:41:20.090Z,6.40
2023-04-26T02:43:49.632Z,6.40
2023-04-26T02:46:18.732Z,6.36
2023-04-26T02:48:47.658Z,6.39
2023-04-26T02:51:18.171Z,6.40
2023-04-26T02:53:47.012Z,6.42
2023-04-26T02:56:16.234Z,6.42
2023-04-26T02:58:44.960Z,6.40
2023-04-26T03:01:14.925Z,6.42
2023-04-26T03:03:44.568Z,6.38
2023-04-26T03:06:13.828Z,6.38
2023-04-26T03:08:44.156Z,6.43
2023-04-26T03:11:13.406Z,6.46
2023-04-26T03:13:42.323Z,6.45
2023-04-26T03:16:11.773Z,6.41
2023-04-26T03:18:40.848Z,6.42
2023-04-26T03:21:11.952Z,6.44
2023-04-26T03:23:41.261Z,6.46
2023-04-26T03:26:12.119Z,6.43
2023-04-26T03:28:40.922Z,6.43
2023-04-26T03:31:10.119Z,6.44
2023-04-26T03:33:38.966Z,6.43
2023-04-26T03:36:08.398Z,6.43
2023-04-26T03:38:37.450Z,6.43
2023-04-26T03:41:07.063Z,6.42
2023-04-26T03:43:37.262Z,6.40
2023-04-26T03:46:06.695Z,6.43
2023-04-26T03:48:35.480Z,6.46
2023-04-26T03:51:04.663Z,6.39
2023-04-26T03:53:34.490Z,6.32
2023-04-26T03:56:03.587Z,6.34
2023-04-26T03:58:34.740Z,6.38
2023-04-26T04:01:06.187Z,6.42
2023-04-26T04:03:36.275Z,6.38
2023-04-26T04:06:07.143Z,6.37
2023-04-26T04:08:36.073Z,6.37
2023-04-26T04:11:05.534Z,6.38
2023-04-26T04:13:37.745Z,6.40
2023-04-26T04:16:10.280Z,6.42
2023-04-26T04:18:39.379Z,6.44
2023-04-26T04:21:08.428Z,6.42
2023-04-26T04:23:37.757Z,6.41
2023-04-26T04:26:12.560Z,6.40
2023-04-26T04:28:42.401Z,6.41
2023-04-26T04:31:13.114Z,6.41
2023-04-26T04:33:42.823Z,6.39
2023-04-26T04:36:16.864Z,6.40
2023-04-26T04:38:47.572Z,6.42
2023-04-26T04:41:18.846Z,6.42
2023-04-26T04:43:47.899Z,6.43
2023-04-26T04:46:18.404Z,6.45
2023-04-26T04:48:47.510Z,6.38
2023-04-26T04:51:16.584Z,6.42
2023-04-26T04:53:45.665Z,6.47
2023-04-26T04:56:15.785Z,6.49
2023-04-26T04:58:44.786Z,6.50
2023-04-26T05:01:13.893Z,6.51
2023-04-26T05:03:52.587Z,6.55
2023-04-26T05:06:22.791Z,6.56
2023-04-26T05:08:51.678Z,6.55
2023-04-26T05:11:21.465Z,6.53
2023-04-26T05:13:52.693Z,6.56
2023-04-26T05:16:23.026Z,6.50
2023-04-26T05:18:53.519Z,6.52
2023-04-26T05:21:23.100Z,6.53
2023-04-26T05:23:52.373Z,6.53
2023-04-26T05:26:21.757Z,6.50
2023-04-26T05:29:14.944Z,6.55
2023-04-26T05:32:07.264Z,6.62
2023-04-26T05:34:43.784Z,6.67
2023-04-26T05:37:18.361Z,6.69
2023-04-26T05:39:47.275Z,6.70
2023-04-26T05:42:17.984Z,6.68
2023-04-26T05:44:47.673Z,6.72
2023-04-26T05:47:16.748Z,6.76
2023-04-26T05:49:47.391Z,6.83
2023-04-26T05:52:16.623Z,6.80
2023-04-26T05:54:45.394Z,6.86
2023-04-26T05:57:15.022Z,6.91
2023-04-26T05:59:43.945Z,6.99
2023-04-26T06:02:13.368Z,7.04
2023-04-26T06:04:42.443Z,7.12
2023-04-26T06:07:19.544Z,7.14
2023-04-26T06:09:49.428Z,7.20
2023-04-26T06:12:18.877Z,7.28
2023-04-26T06:14:48.637Z,7.24
2023-04-26T06:17:22.037Z,7.21
2023-04-26T06:19:51.025Z,7.25
2023-04-26T06:22:22.817Z,7.23
2023-04-26T06:24:51.626Z,7.26
2023-04-26T06:27:20.813Z,7.27
2023-04-26T06:29:51.426Z,7.33
2023-04-26T06:32:21.903Z,7.35
2023-04-26T06:34:50.972Z,7.42
2023-04-26T06:37:21.419Z,7.48
2023-04-26T06:39:50.741Z,7.54
2023-04-26T06:42:20.504Z,7.57
2023-04-26T06:45:20.124Z,7.62
2023-04-26T06:47:52.300Z,7.61
2023-04-26T06:50:21.658Z,7.66
2023-04-26T06:52:52.414Z,7.71
2023-04-26T06:55:21.352Z,7.71
2023-04-26T06:57:50.994Z,7.74
2023-04-26T07:00:20.153Z,7.76
2023-04-26T07:02:49.653Z,7.79
2023-04-26T07:05:18.694Z,7.79
2023-04-26T07:07:48.146Z,7.78
2023-04-26T07:10:18.649Z,7.83
2023-04-26T07:12:48.438Z,7.80
2023-04-26T07:15:17.258Z,7.85
2023-04-26T07:17:46.457Z,7.91
2023-04-26T07:20:19.833Z,7.97
2023-04-26T07:22:49.250Z,8.02
2023-04-26T07:25:19.627Z,8.07
2023-04-26T07:27:51.733Z,8.09
2023-04-26T07:30:20.587Z,8.16
2023-04-26T07:32:50.116Z,8.23
2023-04-26T07:35:19.089Z,8.28
2023-04-26T07:37:48.597Z,8.31
2023-04-26T07:40:18.801Z,8.28
2023-04-26T07:42:49.740Z,8.30
2023-04-26T07:45:19.544Z,8.33
2023-04-26T07:47:49.066Z,8.30
2023-04-26T07:50:18.032Z,8.37
2023-04-26T07:52:47.806Z,8.40
2023-04-26T07:55:17.778Z,8.46
2023-04-26T07:57:47.226Z,8.51
2023-04-26T08:00:18.934Z,8.52
2023-04-26T08:02:48.486Z,8.49
2023-04-26T08:05:17.794Z,8.48
2023-04-26T08:07:47.278Z,8.51
2023-04-26T08:10:16.208Z,8.56
2023-04-26T08:12:45.620Z,8.55
2023-04-26T08:15:14.882Z,8.50
2023-04-26T08:17:45.793Z,8.42
2023-04-26T08:20:16.478Z,8.37
2023-04-26T08:22:45.856Z,8.38
2023-04-26T08:25:14.676Z,8.39
2023-04-26T08:27:44.977Z,8.38
2023-04-26T08:30:14.375Z,8.37
2023-04-26T08:32:43.534Z,8.37
2023-04-26T08:35:14.201Z,8.37
2023-04-26T08:37:43.472Z,8.34
2023-04-26T08:40:12.475Z,8.32
2023-04-26T08:42:44.057Z,8.38
2023-04-26T08:45:13.108Z,8.41
2023-04-26T08:47:45.832Z,8.49
2023-04-26T08:50:16.993Z,8.49
2023-04-26T08:52:48.597Z,8.54
2023-04-26T08:55:18.320Z,8.57
2023-04-26T08:57:49.844Z,8.66
2023-04-26T09:00:19.792Z,8.59
2023-04-26T09:02:51.393Z,8.49
2023-04-26T09:05:24.404Z,8.47
2023-04-26T09:07:57.665Z,8.45
2023-04-26T09:10:26.959Z,8.47
2023-04-26T09:12:56.611Z,8.45
2023-04-26T09:15:27.528Z,8.49
2023-04-26T09:17:56.785Z,8.59
2023-04-26T09:20:27.836Z,8.68
2023-04-26T09:23:05.427Z,8.73
2023-04-26T09:25:34.510Z,8.63
2023-04-26T09:28:04.329Z,8.63
2023-04-26T09:30:39.402Z,8.58
2023-04-26T09:33:09.639Z,8.67
2023-04-26T09:35:41.355Z,8.77
2023-04-26T09:38:13.570Z,8.72
2023-04-26T09:40:44.000Z,8.67
2023-04-26T09:43:13.972Z,8.64
2023-04-26T09:45:47.203Z,8.71
2023-04-26T09:48:17.775Z,8.70
2023-04-26T09:50:48.277Z,8.70
2023-04-26T09:53:31.092Z,8.58
2023-04-26T09:56:07.890Z,8.53
2023-04-26T09:58:38.098Z,8.37
2023-04-26T10:01:08.325Z,8.34
2023-04-26T10:03:38.051Z,8.28
2023-04-26T10:06:08.954Z,8.26
2023-04-26T10:08:38.224Z,8.17
2023-04-26T10:11:08.427Z,8.20
2023-04-26T10:13:37.603Z,8.18
2023-04-26T10:16:07.233Z,8.26
2023-04-26T10:18:37.306Z,8.26
2023-04-26T10:21:08.224Z,8.15
2023-04-26T10:23:39.541Z,8.12
2023-04-26T10:26:08.765Z,8.16
2023-04-26T10:29:02.051Z,8.16
2023-04-26T10:31:50.414Z,8.16
2023-04-26T10:34:20.465Z,8.26
2023-04-26T10:37:10.209Z,8.25
2023-04-26T10:39:42.619Z,8.35
2023-04-26T10:42:25.463Z,8.49
2023-04-26T10:44:57.930Z,8.65
2023-04-26T10:47:29.091Z,8.75
2023-04-26T10:50:11.203Z,8.86
2023-04-26T10:53:04.381Z,8.92
2023-04-26T10:55:42.394Z,9.00
2023-04-26T10:58:28.281Z,9.01
2023-04-26T11:01:07.724Z,8.96
2023-04-26T11:03:38.310Z,8.99
2023-04-26T11:06:14.065Z,9.02
2023-04-26T11:08:43.691Z,9.08
2023-04-26T11:11:23.649Z,9.18
2023-04-26T11:13:54.849Z,9.24
2023-04-26T11:16:27.162Z,9.27
2023-04-26T11:18:56.621Z,9.27
2023-04-26T11:21:27.245Z,9.30
2023-04-26T11:23:58.910Z,9.44
2023-04-26T11:26:35.520Z,9.61
2023-04-26T11:29:04.637Z,9.77
2023-04-26T11:31:38.517Z,9.90
2023-04-26T11:34:07.779Z,9.96
2023-04-26T11:36:38.493Z,10.04
2023-04-26T11:39:08.832Z,10.11
2023-04-26T11:41:39.717Z,10.18
2023-04-26T11:44:09.193Z,10.17
2023-04-26T11:46:40.094Z,10.23
2023-04-26T11:49:09.828Z,10.33
2023-04-26T11:51:40.060Z,10.31
2023-04-26T11:54:11.538Z,10.34
2023-04-26T11:56:42.737Z,10.41
2023-04-26T11:59:12.728Z,10.43
2023-04-26T12:01:51.874Z,10.34
2023-04-26T12:04:21.470Z,10.32
2023-04-26T12:06:56.284Z,10.27
2023-04-26T12:09:25.746Z,10.20
2023-04-26T12:11:58.992Z,10.20
2023-04-26T12:14:32.249Z,10.23
2023-04-26T12:17:06.368Z,10.12
2023-04-26T12:19:36.767Z,10.15
2023-04-26T12:22:08.336Z,10.27
2023-04-26T12:24:38.188Z,10.31
2023-04-26T12:27:10.041Z,10.36
2023-04-26T12:29:41.348Z,10.43
2023-04-26T12:32:11.828Z,10.45
2023-04-26T12:34:42.570Z,10.43
2023-04-26T12:37:19.656Z,10.44
2023-04-26T12:39:50.533Z,10.44
2023-04-26T12:42:23.983Z,10.44
2023-04-26T12:44:53.344Z,10.41
2023-04-26T12:47:23.937Z,10.39
2023-04-26T12:49:56.308Z,10.34
2023-04-26T12:52:27.821Z,10.36
2023-04-26T12:54:57.270Z,10.29
2023-04-26T12:57:27.721Z,10.25
2023-04-26T12:59:56.774Z,10.23
2023-04-26T13:02:25.984Z,10.23
2023-04-26T13:04:55.320Z,10.27
2023-04-26T13:07:24.488Z,10.23
2023-04-26T13:09:53.621Z,10.31
2023-04-26T13:12:25.603Z,10.32
2023-04-26T13:15:00.489Z,10.39
2023-04-26T13:17:37.504Z,10.45
2023-04-26T13:20:08.049Z,10.57
2023-04-26T13:22:42.552Z,10.61
2023-04-26T13:25:15.808Z,10.70
2023-04-26T13:27:46.150Z,10.74
2023-04-26T13:30:19.488Z,10.83
2023-04-26T13:32:49.870Z,10.88
2023-04-26T13:35:18.840Z,10.87
2023-04-26T13:37:47.931Z,10.91
2023-04-26T13:40:17.308Z,11.07
2023-04-26T13:42:46.351Z,11.26
2023-04-26T13:45:18.211Z,11.51
2023-04-26T13:47:48.572Z,11.86
2023-04-26T13:50:17.638Z,12.14
2023-04-26T13:52:48.594Z,12.28
2023-04-26T13:55:19.088Z,12.42
2023-04-26T13:57:48.331Z,12.54
2023-04-26T14:00:19.328Z,12.59
2023-04-26T14:02:53.168Z,12.49
2023-04-26T14:05:24.625Z,12.35
2023-04-26T14:07:55.227Z,12.12
2023-04-26T14:10:25.354Z,11.95
2023-04-26T14:12:57.050Z,11.90
2023-04-26T14:15:28.545Z,11.88
2023-04-26T14:18:02.231Z,11.96
2023-04-26T14:20:32.201Z,12.12
2023-04-26T14:23:03.578Z,12.37
2023-04-26T14:25:34.028Z,12.83
2023-04-26T14:28:04.840Z,13.24
2023-04-26T14:30:35.641Z,13.69
2023-04-26T14:33:06.006Z,14.26
2023-04-26T14:35:37.475Z,14.74
2023-04-26T14:38:08.200Z,15.13
2023-04-26T14:40:37.763Z,15.49
2023-04-26T14:43:07.032Z,16.05
2023-04-26T14:45:44.604Z,16.32
2023-04-26T14:48:14.772Z,16.67
2023-04-26T14:50:43.766Z,16.86
2023-04-26T14:53:13.278Z,16.60
2023-04-26T14:55:42.210Z,16.30
2023-04-26T14:58:11.753Z,16.17
2023-04-26T15:00:43.096Z,15.68
2023-04-26T15:03:14.970Z,15.75
2023-04-26T15:05:43.981Z,15.63
2023-04-26T15:08:13.310Z,15.63
2023-04-26T15:10:42.171Z,15.79
2023-04-26T15:13:11.464Z,16.16
2023-04-26T15:15:40.463Z,16.26
2023-04-26T15:18:11.048Z,16.24
2023-04-26T15:20:40.551Z,16.15
2023-04-26T15:23:09.626Z,16.33
2023-04-26T15:25:38.709Z,16.31
2023-04-26T15:28:07.742Z,16.17
2023-04-26T15:30:36.678Z,16.41
2023-04-26T15:33:06.958Z,16.25
2023-04-26T15:35:37.302Z,16.35
2023-04-26T15:38:06.639Z,16.47
2023-04-26T15:40:37.544Z,16.63
2023-04-26T15:43:07.619Z,16.73
2023-04-26T15:45:36.793Z,16.71
2023-04-26T15:48:07.590Z,16.77
2023-04-26T15:50:38.032Z,16.67
2023-04-26T15:53:07.209Z,16.72
2023-04-26T15:55:36.287Z,16.57
2023-04-26T15:58:05.917Z,16.52
2023-04-26T16:00:35.072Z,16.58
2023-04-26T16:03:04.471Z,16.56
2023-04-26T16:05:33.659Z,16.46
2023-04-26T16:08:09.676Z,16.10
2023-04-26T16:10:58.364Z,15.80
2023-04-26T16:13:30.769Z,15.29
2023-04-26T16:16:00.277Z,15.33
2023-04-26T16:18:30.466Z,15.31
2023-04-26T16:21:04.253Z,15.02
2023-04-26T16:23:34.932Z,14.73
2023-04-26T16:26:06.663Z,14.09
2023-04-26T16:28:35.996Z,13.79
2023-04-26T16:31:05.100Z,13.54
2023-04-26T16:33:34.541Z,13.25
2023-04-26T16:36:03.650Z,12.98
2023-04-26T16:38:33.854Z,12.80
2023-04-26T16:41:04.214Z,12.70
2023-04-26T16:43:34.891Z,12.59
2023-04-26T16:46:04.541Z,12.27
2023-04-26T16:48:34.808Z,12.05
2023-04-26T16:51:07.150Z,11.91
2023-04-26T16:53:37.729Z,11.57
2023-04-26T16:56:08.507Z,11.26
2023-04-26T16:58:37.858Z,11.13
2023-04-26T17:01:06.772Z,10.97
2023-04-26T17:03:36.260Z,10.87
2023-04-26T17:06:06.714Z,10.87
2023-04-26T17:08:36.019Z,10.71
2023-04-26T17:11:04.942Z,10.61
2023-04-26T17:13:35.470Z,10.53
2023-04-26T17:16:05.849Z,10.42
2023-04-26T17:18:36.705Z,10.23
2023-04-26T17:21:07.130Z,10.15
2023-04-26T17:23:36.853Z,10.06
2023-04-26T17:26:05.974Z,9.98
2023-04-26T17:28:38.919Z,9.89
2023-04-26T17:31:08.125Z,9.92
2023-04-26T17:33:37.813Z,9.87
2023-04-26T17:36:07.346Z,9.79
2023-04-26T17:38:36.376Z,9.68
2023-04-26T17:41:05.598Z,9.68
2023-04-26T17:43:36.059Z,9.61
2023-04-26T17:46:05.100Z,9.51
2023-04-26T17:48:34.161Z,9.40
2023-04-26T17:51:03.321Z,9.36
2023-04-26T17:53:32.531Z,9.31
2023-04-26T17:56:01.772Z,9.24
2023-04-26T17:58:31.218Z,9.08
2023-04-26T18:01:02.252Z,9.02
2023-04-26T18:03:31.790Z,8.91
2023-04-26T18:06:00.884Z,8.83
2023-04-26T18:08:29.951Z,8.70
2023-04-26T18:10:58.956Z,8.69
2023-04-26T18:13:28.319Z,8.66
2023-04-26T18:15:57.618Z,8.57
2023-04-26T18:18:28.186Z,8.53
2023-04-26T18:20:58.943Z,8.44
2023-04-26T18:23:28.001Z,8.36
2023-04-26T18:25:56.800Z,8.26
2023-04-26T18:28:26.189Z,8.13
2023-04-26T18:30:57.241Z,8.05
2023-04-26T18:33:29.843Z,8.00
2023-04-26T18:35:59.124Z,7.94
2023-04-26T18:38:29.417Z,8.02
2023-04-26T18:40:59.486Z,7.92
2023-04-26T18:43:28.759Z,7.88
2023-04-26T18:45:57.556Z,7.79
2023-04-26T18:48:28.685Z,7.69
2023-04-26T18:50:57.908Z,7.60
2023-04-26T18:53:26.955Z,7.66
2023-04-26T18:55:57.109Z,7.68
2023-04-26T18:58:26.562Z,7.55
2023-04-26T19:00:55.598Z,7.47
2023-04-26T19:03:24.937Z,7.36
2023-04-26T19:05:58.081Z,7.36
2023-04-26T19:08:28.035Z,7.46
2023-04-26T19:10:57.356Z,7.40
2023-04-26T19:13:26.742Z,7.45
2023-04-26T19:15:55.570Z,7.30
2023-04-26T19:18:24.645Z,7.27
2023-04-26T19:20:53.422Z,7.25
2023-04-26T19:23:23.998Z,7.30
2023-04-26T19:25:55.432Z,7.29
2023-04-26T19:28:24.757Z,7.24
2023-04-26T19:30:54.294Z,7.19
2023-04-26T19:33:23.396Z,7.13
2023-04-26T19:35:52.260Z,7.04
2023-04-26T19:38:21.332Z,7.00
2023-04-26T19:40:51.629Z,6.95
2023-04-26T19:43:21.235Z,6.87
2023-04-26T19:45:51.475Z,6.78
2023-04-26T19:48:20.494Z,6.51
2023-04-26T19:50:49.434Z,6.38
2023-04-26T19:53:18.898Z,6.37
2023-04-26T19:55:47.914Z,6.32
2023-04-26T19:58:20.113Z,6.22
2023-04-26T20:00:58.131Z,6.14
2023-04-26T20:03:28.489Z,6.08
2023-04-26T20:05:58.152Z,6.01
2023-04-26T20:08:31.439Z,6.01
2023-04-26T20:11:03.525Z,5.96
2023-04-26T20:13:35.427Z,5.94
2023-04-26T20:16:05.858Z,5.91
2023-04-26T20:18:35.078Z,5.85
2023-04-26T20:21:07.140Z,5.80
2023-04-26T20:23:36.628Z,5.79
2023-04-26T20:26:05.415Z,5.78
2023-04-26T20:28:41.460Z,5.78
2023-04-26T20:31:11.604Z,5.77
2023-04-26T20:33:40.993Z,5.67
2023-04-26T20:36:11.293Z,5.70
2023-04-26T20:38:41.088Z,5.75
2023-04-26T20:41:12.182Z,5.75
2023-04-26T20:43:47.064Z,5.68
2023-04-26T20:46:17.844Z,5.57
2023-04-26T20:48:48.224Z,5.60
2023-04-26T20:51:18.000Z,5.51
2023-04-26T20:53:49.337Z,5.42
2023-04-26T20:56:18.825Z,5.42
2023-04-26T20:58:49.272Z,5.42
2023-04-26T21:01:18.588Z,5.40
2023-04-26T21:03:48.152Z,5.32
2023-04-26T21:06:17.018Z,5.30
2023-04-26T21:08:46.313Z,5.27
2023-04-26T21:11:15.073Z,5.20
2023-04-26T21:13:44.318Z,5.18
2023-04-26T21:16:14.646Z,5.20
2023-04-26T21:18:43.770Z,5.22
2023-04-26T21:21:12.701Z,5.15
2023-04-26T21:23:42.291Z,5.07
2023-04-26T21:26:11.101Z,5.06
2023-04-26T21:28:40.259Z,5.06
2023-04-26T21:31:09.114Z,5.03
2023-04-26T21:33:40.025Z,5.01
2023-04-26T21:36:09.470Z,4.96
2023-04-26T21:38:38.586Z,4.94
2023-04-26T21:41:07.356Z,4.97
2023-04-26T21:43:38.102Z,4.95
2023-04-26T21:46:08.095Z,4.92
2023-04-26T21:48:38.839Z,4.85
2023-04-26T21:51:09.331Z,4.86
2023-04-26T21:53:38.830Z,4.84
2023-04-26T21:56:07.852Z,4.83
2023-04-26T21:58:36.870Z,4.80
2023-04-26T22:01:09.548Z,4.74
2023-04-26T22:03:38.932Z,4.70
2023-04-26T22:06:09.848Z,4.57
2023-04-26T22:08:39.674Z,4.64
2023-04-26T22:11:08.418Z,4.65
2023-04-26T22:13:37.619Z,4.66
2023-04-26T22:16:06.895Z,4.64
2023-04-26T22:18:36.473Z,4.64
2023-04-26T22:21:05.211Z,4.56
2023-04-26T22:23:35.971Z,4.58
2023-04-26T22:26:05.138Z,4.54
2023-04-26T22:28:34.191Z,4.59
2023-04-26T22:31:03.410Z,4.66
2023-04-26T22:33:32.431Z,4.63
2023-04-26T22:36:01.534Z,4.56
2023-04-26T22:38:30.730Z,4.60
2023-04-26T22:41:01.095Z,4.64
2023-04-26T22:43:30.307Z,4.67
2023-04-26T22:45:59.074Z,4.69
2023-04-26T22:48:28.413Z,4.64
2023-04-26T22:50:57.579Z,4.70
2023-04-26T22:53:26.692Z,4.65
2023-04-26T22:55:55.678Z,4.65
2023-04-26T22:58:26.312Z,4.70
2023-04-26T23:00:55.243Z,4.73
2023-04-26T23:03:24.498Z,4.78
2023-04-26T23:05:53.649Z,4.80
2023-04-26T23:08:22.808Z,4.83
2023-04-26T23:10:51.780Z,4.83
2023-04-26T23:13:21.588Z,4.86
2023-04-26T23:15:52.422Z,4.88
2023-04-26T23:18:21.780Z,4.87
2023-04-26T23:20:51.500Z,4.90
2023-04-26T23:23:20.704Z,4.81
2023-04-26T23:25:49.522Z,4.84
2023-04-26T23:28:18.951Z,4.84
2023-04-26T23:30:47.728Z,4.81
2023-04-26T23:33:18.401Z,4.86
2023-04-26T23:35:47.302Z,4.87
2023-04-26T23:38:16.653Z,4.88
2023-04-26T23:40:46.226Z,4.83
2023-04-26T23:43:15.421Z,4.84
2023-04-26T23:45:47.386Z,4.82
2023-04-26T23:48:18.434Z,4.86
2023-04-26T23:50:47.364Z,4.87
2023-04-26T23:53:16.651Z,4.89
2023-04-26T23:55:46.092Z,4.84
2023-04-26T23:58:15.226Z,4.85
